createdAt,value
2019-02-11T00:01:02.622Z,0.20
2019-02-11T00:03:31.138Z,0.20
2019-02-11T00:05:59.687Z,0.23
2019-02-11T00:08:28.239Z,0.20
2019-02-11T00:10:57.164Z,0.20
2019-02-11T00:13:25.862Z,0.20
2019-02-11T00:15:54.405Z,0.30
2019-02-11T00:18:22.917Z,0.20
2019-02-11T00:20:51.452Z,0.47
2019-02-11T00:23:19.943Z,2.17
2019-02-11T00:25:48.857Z,0.10
2019-02-11T00:28:17.417Z,0.30
2019-02-11T00:30:45.976Z,0.20
2019-02-11T00:33:14.531Z,0.20
2019-02-11T00:35:43.482Z,0.27
2019-02-11T00:38:12.069Z,0.20
2019-02-11T00:40:40.614Z,0.20
2019-02-11T00:43:09.450Z,0.30
2019-02-11T00:45:38.018Z,0.30
2019-02-11T00:48:07.198Z,0.13
2019-02-11T00:50:35.836Z,0.20
2019-02-11T00:53:04.379Z,0.10
2019-02-11T00:55:32.937Z,0.30
2019-02-11T00:58:01.507Z,0.20
2019-02-11T01:00:30.103Z,0.37
2019-02-11T01:02:58.619Z,0.20
2019-02-11T01:05:27.212Z,0.30
2019-02-11T01:07:55.753Z,0.10
2019-02-11T01:10:24.245Z,1.43
2019-02-11T01:12:52.796Z,0.13
2019-02-11T01:15:21.442Z,0.30
2019-02-11T01:17:49.945Z,0.20
2019-02-11T01:20:18.557Z,0.20
2019-02-11T01:22:47.082Z,0.20
2019-02-11T01:25:15.635Z,0.10
2019-02-11T01:27:44.172Z,0.20
2019-02-11T01:30:13.020Z,0.20
2019-02-11T01:32:41.562Z,0.20
2019-02-11T01:35:10.120Z,1.00
2019-02-11T01:37:38.679Z,0.20
2019-02-11T01:40:09.973Z,0.20
2019-02-11T01:42:38.461Z,0.30
2019-02-11T01:45:10.092Z,0.30
2019-02-11T01:47:38.923Z,0.10
2019-02-11T01:50:12.145Z,0.30
2019-02-11T01:52:40.723Z,0.20
2019-02-11T01:55:09.537Z,1.50
2019-02-11T01:57:38.087Z,0.20
2019-02-11T02:00:10.061Z,0.20
2019-02-11T02:02:38.618Z,0.20
2019-02-11T02:05:08.596Z,0.37
2019-02-11T02:07:37.184Z,0.20
2019-02-11T02:10:14.459Z,0.30
2019-02-11T02:12:43.057Z,0.30
2019-02-11T02:15:15.944Z,0.20
2019-02-11T02:17:44.480Z,0.10
2019-02-11T02:20:14.863Z,0.20
2019-02-11T02:22:43.424Z,0.30
2019-02-11T02:25:12.456Z,0.37
2019-02-11T02:27:41.028Z,0.20
2019-02-11T02:30:12.322Z,0.10
2019-02-11T02:32:40.811Z,0.30
2019-02-11T02:35:09.533Z,0.20
2019-02-11T02:37:38.069Z,0.20
2019-02-11T02:40:08.823Z,0.83
2019-02-11T02:42:37.361Z,0.37
2019-02-11T02:45:07.785Z,0.93
2019-02-11T02:47:36.272Z,0.10
2019-02-11T02:50:06.974Z,0.20
2019-02-11T02:52:35.549Z,0.10
2019-02-11T02:55:05.202Z,0.13
2019-02-11T02:57:33.725Z,0.20
2019-02-11T03:00:02.363Z,0.10
2019-02-11T03:02:30.959Z,0.20
2019-02-11T03:04:59.678Z,0.20
2019-02-11T03:07:28.227Z,0.10
2019-02-11T03:09:57.077Z,0.10
2019-02-11T03:12:25.952Z,0.30
2019-02-11T03:14:54.507Z,0.20
2019-02-11T03:17:23.098Z,0.17
2019-02-11T03:19:51.656Z,0.40
2019-02-11T03:22:20.275Z,0.17
2019-02-11T03:24:49.188Z,0.10
2019-02-11T03:27:17.759Z,0.30
2019-02-11T03:29:46.329Z,0.00
2019-02-11T03:32:15.232Z,0.10
2019-02-11T03:34:43.795Z,0.30
2019-02-11T03:37:12.369Z,0.03
2019-02-11T03:39:40.930Z,0.07
2019-02-11T03:42:09.506Z,0.10
2019-02-11T03:44:38.095Z,0.10
2019-02-11T03:47:06.645Z,0.20
2019-02-11T03:49:35.225Z,0.30
2019-02-11T03:52:03.850Z,0.20
2019-02-11T03:54:32.347Z,0.30
2019-02-11T03:57:01.481Z,0.40
2019-02-11T03:59:30.562Z,0.13
2019-02-11T04:01:59.150Z,0.30
2019-02-11T04:04:27.737Z,0.20
2019-02-11T04:06:56.279Z,1.63
2019-02-11T04:09:24.870Z,0.67
2019-02-11T04:11:53.420Z,0.20
2019-02-11T04:14:24.989Z,0.20
2019-02-11T04:16:52.302Z,0.20
2019-02-11T04:19:20.872Z,0.33
2019-02-11T04:21:52.510Z,0.40
2019-02-11T04:24:21.098Z,0.40
2019-02-11T04:26:49.668Z,0.50
2019-02-11T04:29:18.262Z,0.63
2019-02-11T04:31:46.827Z,0.47
2019-02-11T04:34:15.391Z,0.93
2019-02-11T04:36:43.987Z,0.37
2019-02-11T04:39:12.533Z,0.30
2019-02-11T04:41:41.490Z,0.40
2019-02-11T04:44:10.112Z,3.30
2019-02-11T04:46:38.674Z,0.30
2019-02-11T04:49:07.241Z,0.73
2019-02-11T04:51:35.818Z,0.33
2019-02-11T04:54:04.375Z,1.57
2019-02-11T04:56:32.971Z,2.35
2019-02-11T04:59:01.554Z,2.33
2019-02-11T05:01:30.139Z,1.23
2019-02-11T05:03:58.710Z,1.77
2019-02-11T05:06:27.255Z,3.10
2019-02-11T05:08:56.214Z,19.73
2019-02-11T05:11:24.771Z,19.67
2019-02-11T05:13:53.669Z,6.23
2019-02-11T05:16:22.248Z,30.97
2019-02-11T05:18:50.811Z,44.07
2019-02-11T05:21:19.382Z,7.20
2019-02-11T05:23:47.972Z,4.50
2019-02-11T05:26:16.521Z,3.53
2019-02-11T05:28:45.113Z,5.27
2019-02-11T05:31:14.042Z,4.33
2019-02-11T05:33:42.601Z,3.23
2019-02-11T05:36:11.193Z,8.53
2019-02-11T05:38:39.744Z,6.20
2019-02-11T05:41:08.699Z,3.77
2019-02-11T05:43:37.261Z,7.07
2019-02-11T05:46:05.825Z,9.97
2019-02-11T05:48:34.402Z,6.67
2019-02-11T05:51:02.967Z,5.87
2019-02-11T05:53:31.514Z,3.23
2019-02-11T05:56:00.037Z,4.67
2019-02-11T05:58:28.578Z,11.63
2019-02-11T06:00:57.090Z,9.10
2019-02-11T06:03:25.663Z,9.80
2019-02-11T06:05:54.214Z,5.30
2019-02-11T06:08:22.807Z,9.77
2019-02-11T06:10:51.414Z,6.63
2019-02-11T06:13:19.991Z,7.20
2019-02-11T06:15:48.851Z,9.80
2019-02-11T06:18:17.424Z,6.30
2019-02-11T06:20:45.986Z,7.03
2019-02-11T06:23:14.567Z,4.80
2019-02-11T06:25:43.107Z,13.83
2019-02-11T06:28:11.706Z,5.87
2019-02-11T06:30:40.254Z,5.03
2019-02-11T06:33:09.115Z,9.07
2019-02-11T06:35:37.689Z,5.43
2019-02-11T06:38:06.226Z,3.97
2019-02-11T06:40:34.817Z,1.43
2019-02-11T06:43:03.402Z,5.43
2019-02-11T06:45:31.999Z,5.27
2019-02-11T06:48:00.569Z,3.53
2019-02-11T06:50:29.129Z,2.30
2019-02-11T06:52:57.683Z,2.93
2019-02-11T06:55:26.342Z,3.03
2019-02-11T06:57:54.892Z,4.07
2019-02-11T07:00:23.487Z,4.13
2019-02-11T07:02:52.050Z,3.70
2019-02-11T07:05:20.611Z,3.33
2019-02-11T07:07:49.185Z,2.87
2019-02-11T07:10:17.751Z,4.27
2019-02-11T07:12:46.303Z,3.17
2019-02-11T07:15:21.506Z,4.83
2019-02-11T07:17:45.941Z,2.43
2019-02-11T07:20:14.514Z,3.53
2019-02-11T07:22:43.097Z,5.70
2019-02-11T07:25:11.706Z,4.00
2019-02-11T07:27:40.473Z,4.87
2019-02-11T07:30:11.362Z,3.83
2019-02-11T07:32:40.190Z,4.97
2019-02-11T07:35:08.906Z,5.40
2019-02-11T07:37:37.478Z,4.67
2019-02-11T07:40:09.128Z,3.90
2019-02-11T07:42:48.470Z,2.77
2019-02-11T07:45:19.001Z,4.07
2019-02-11T07:47:47.584Z,2.80
2019-02-11T07:50:16.774Z,5.93
2019-02-11T07:52:45.347Z,4.83
2019-02-11T07:55:13.922Z,5.60
2019-02-11T07:57:42.482Z,7.27
2019-02-11T08:00:11.286Z,1.67
2019-02-11T08:02:39.850Z,3.43
2019-02-11T08:05:08.651Z,5.47
2019-02-11T08:07:37.226Z,3.50
2019-02-11T08:10:07.746Z,6.10
2019-02-11T08:12:36.302Z,2.60
2019-02-11T08:15:07.941Z,3.57
2019-02-11T08:17:36.508Z,4.67
2019-02-11T08:20:10.126Z,3.10
2019-02-11T08:22:38.710Z,2.57
2019-02-11T08:25:07.401Z,4.23
2019-02-11T08:27:35.997Z,8.40
2019-02-11T08:30:07.363Z,2.53
2019-02-11T08:32:35.919Z,7.17
2019-02-11T08:35:05.749Z,7.00
2019-02-11T08:37:34.388Z,5.90
2019-02-11T08:40:03.330Z,4.00
2019-02-11T08:42:31.921Z,1.70
2019-02-11T08:45:00.467Z,4.10
2019-02-11T08:47:29.046Z,3.43
2019-02-11T08:49:57.615Z,4.10
2019-02-11T08:52:26.219Z,4.30
2019-02-11T08:54:54.811Z,4.33
2019-02-11T08:57:23.352Z,5.30
2019-02-11T08:59:51.943Z,6.30
2019-02-11T09:02:20.843Z,2.93
2019-02-11T09:04:49.407Z,3.00
2019-02-11T09:07:17.977Z,4.07
2019-02-11T09:09:46.607Z,6.50
2019-02-11T09:12:15.163Z,4.73
2019-02-11T09:14:43.757Z,4.50
2019-02-11T09:17:12.627Z,4.00
2019-02-11T09:19:41.202Z,4.80
2019-02-11T09:22:09.785Z,3.33
2019-02-11T09:24:38.322Z,8.60
2019-02-11T09:27:06.986Z,7.10
2019-02-11T09:29:35.539Z,6.30
2019-02-11T09:32:04.627Z,5.90
2019-02-11T09:34:33.201Z,7.97
2019-02-11T09:37:01.770Z,4.73
2019-02-11T09:39:30.338Z,4.10
2019-02-11T09:41:58.906Z,8.57
2019-02-11T09:44:29.651Z,5.93
2019-02-11T09:46:58.096Z,5.47
2019-02-11T09:49:26.899Z,4.90
2019-02-11T09:51:55.882Z,6.67
2019-02-11T09:54:24.475Z,8.47
2019-02-11T09:56:53.014Z,7.47
2019-02-11T09:59:21.604Z,5.20
2019-02-11T10:01:50.170Z,3.63
2019-02-11T10:04:19.071Z,5.87
2019-02-11T10:06:47.638Z,4.40
2019-02-11T10:09:16.298Z,5.63
2019-02-11T10:11:44.859Z,8.57
2019-02-11T10:14:13.454Z,7.07
2019-02-11T10:16:42.071Z,9.97
2019-02-11T10:19:10.666Z,4.13
2019-02-11T10:21:39.234Z,5.20
2019-02-11T10:24:07.802Z,3.20
2019-02-11T10:26:36.390Z,2.43
2019-02-11T10:29:04.940Z,4.13
2019-02-11T10:31:33.886Z,2.87
2019-02-11T10:34:02.457Z,2.07
2019-02-11T10:36:31.018Z,5.30
2019-02-11T10:38:59.657Z,5.27
2019-02-11T10:41:28.318Z,2.77
2019-02-11T10:43:57.216Z,2.63
2019-02-11T10:46:25.802Z,3.93
2019-02-11T10:48:54.340Z,3.10
2019-02-11T10:51:22.915Z,4.87
2019-02-11T10:53:51.490Z,1.67
2019-02-11T10:56:21.829Z,2.27
2019-02-11T10:58:50.506Z,4.00
2019-02-11T11:01:19.073Z,2.63
2019-02-11T11:03:47.634Z,3.20
2019-02-11T11:06:16.274Z,3.23
2019-02-11T11:08:44.843Z,5.47
2019-02-11T11:11:13.394Z,5.13
2019-02-11T11:13:42.022Z,5.37
2019-02-11T11:16:10.702Z,5.47
2019-02-11T11:18:39.293Z,6.00
2019-02-11T11:21:10.144Z,8.37
2019-02-11T11:23:38.711Z,9.07
2019-02-11T11:26:07.288Z,7.73
2019-02-11T11:28:35.843Z,8.23
2019-02-11T11:31:04.571Z,6.20
2019-02-11T11:33:33.488Z,10.30
2019-02-11T11:36:02.125Z,8.83
2019-02-11T11:38:30.744Z,5.87
2019-02-11T11:40:59.273Z,6.67
2019-02-11T11:43:27.830Z,7.47
2019-02-11T11:45:56.334Z,7.30
2019-02-11T11:48:24.920Z,8.23
2019-02-11T11:50:53.854Z,6.70
2019-02-11T11:53:22.420Z,7.47
2019-02-11T11:55:51.057Z,7.57
2019-02-11T11:58:19.696Z,4.53
2019-02-11T12:00:48.443Z,5.60
2019-02-11T12:03:17.058Z,7.97
2019-02-11T12:05:45.658Z,5.10
2019-02-11T12:08:14.265Z,5.50
2019-02-11T12:10:42.825Z,10.60
2019-02-11T12:13:22.446Z,7.47
2019-02-11T12:15:42.593Z,10.40
2019-02-11T12:18:11.186Z,6.90
2019-02-11T12:20:39.754Z,8.57
2019-02-11T12:23:08.333Z,6.33
2019-02-11T12:25:36.875Z,6.43
2019-02-11T12:28:05.789Z,6.73
2019-02-11T12:30:34.775Z,6.47
2019-02-11T12:33:03.378Z,8.03
2019-02-11T12:35:31.974Z,8.17
2019-02-11T12:38:00.598Z,10.63
2019-02-11T12:40:29.252Z,8.93
2019-02-11T12:42:57.829Z,3.77
2019-02-11T12:45:26.776Z,7.17
2019-02-11T12:47:55.674Z,6.53
2019-02-11T12:50:24.277Z,7.57
2019-02-11T12:52:52.818Z,11.40
2019-02-11T12:55:21.464Z,6.13
2019-02-11T12:57:50.179Z,7.87
2019-02-11T13:00:21.268Z,6.50
2019-02-11T13:02:50.239Z,7.27
2019-02-11T13:05:22.864Z,10.47
2019-02-11T13:07:49.210Z,6.93
2019-02-11T13:10:20.412Z,5.10
2019-02-11T13:12:49.216Z,7.43
2019-02-11T13:15:53.063Z,5.23
2019-02-11T13:17:49.436Z,7.80
2019-02-11T13:20:18.729Z,7.17
2019-02-11T13:22:47.450Z,7.90
2019-02-11T13:25:17.138Z,6.43
2019-02-11T13:27:45.789Z,8.13
2019-02-11T13:30:24.776Z,4.80
2019-02-11T13:32:53.419Z,8.93
2019-02-11T13:35:22.062Z,6.33
2019-02-11T13:37:54.786Z,10.50
2019-02-11T13:40:20.901Z,10.80
2019-02-11T13:42:49.490Z,5.53
2019-02-11T13:45:19.901Z,7.10
2019-02-11T13:47:55.181Z,5.63
2019-02-11T13:50:26.856Z,4.77
2019-02-11T13:52:55.941Z,8.37
2019-02-11T13:55:29.508Z,7.67
2019-02-11T13:57:55.255Z,6.73
2019-02-11T14:00:34.398Z,7.20
2019-02-11T14:03:05.454Z,6.90
2019-02-11T14:05:34.311Z,5.43
2019-02-11T14:08:03.621Z,5.67
2019-02-11T14:10:32.342Z,6.23
2019-02-11T14:13:01.281Z,3.77
2019-02-11T14:15:29.910Z,4.33
2019-02-11T14:18:12.354Z,6.80
2019-02-11T14:20:31.813Z,6.17
2019-02-11T14:23:00.407Z,5.63
2019-02-11T14:25:42.509Z,4.67
2019-02-11T14:27:59.195Z,9.60
2019-02-11T14:30:27.946Z,4.77
2019-02-11T14:32:56.520Z,5.83
2019-02-11T14:35:25.553Z,7.87
2019-02-11T14:37:54.085Z,3.57
2019-02-11T14:40:22.735Z,4.40
2019-02-11T14:42:51.308Z,7.93
2019-02-11T14:45:20.918Z,7.43
2019-02-11T14:47:49.483Z,5.47
2019-02-11T14:50:18.066Z,5.80
2019-02-11T14:52:46.688Z,9.47
2019-02-11T14:55:15.738Z,5.90
2019-02-11T14:57:44.470Z,7.28
2019-02-11T15:00:21.112Z,7.37
2019-02-11T15:02:50.353Z,6.53
2019-02-11T15:05:19.386Z,5.73
2019-02-11T15:07:48.397Z,5.27
2019-02-11T15:10:17.042Z,3.20
2019-02-11T15:12:45.610Z,6.13
2019-02-11T15:15:14.846Z,2.37
2019-02-11T15:17:44.819Z,5.40
2019-02-11T15:20:17.339Z,2.63
2019-02-11T15:22:46.009Z,2.87
2019-02-11T15:25:16.388Z,2.63
2019-02-11T15:27:45.126Z,4.90
2019-02-11T15:30:15.622Z,3.80
2019-02-11T15:32:44.177Z,2.40
2019-02-11T15:35:12.814Z,4.50
2019-02-11T15:37:41.442Z,3.47
2019-02-11T15:40:15.163Z,9.63
2019-02-11T15:42:43.768Z,7.13
2019-02-11T15:45:14.576Z,2.67
2019-02-11T15:47:43.233Z,5.67
2019-02-11T15:50:19.442Z,4.47
2019-02-11T15:52:47.983Z,6.33
2019-02-11T15:55:20.535Z,3.27
2019-02-11T15:57:49.165Z,3.70
2019-02-11T16:00:24.183Z,4.87
2019-02-11T16:02:52.854Z,4.20
2019-02-11T16:05:21.401Z,6.87
2019-02-11T16:07:49.978Z,10.87
2019-02-11T16:10:21.263Z,4.80
2019-02-11T16:12:49.826Z,6.07
2019-02-11T16:15:19.317Z,5.03
2019-02-11T16:17:47.970Z,4.03
2019-02-11T16:20:16.612Z,2.40
2019-02-11T16:22:45.261Z,5.87
2019-02-11T16:25:17.514Z,2.53
2019-02-11T16:27:46.150Z,7.37
2019-02-11T16:30:17.514Z,5.90
2019-02-11T16:32:46.072Z,7.80
2019-02-11T16:35:17.178Z,5.90
2019-02-11T16:37:45.868Z,6.27
2019-02-11T16:40:23.265Z,4.63
2019-02-11T16:42:51.828Z,5.77
2019-02-11T16:45:20.521Z,5.23
2019-02-11T16:47:49.522Z,3.73
2019-02-11T16:50:18.102Z,5.43
2019-02-11T16:52:46.646Z,5.20
2019-02-11T16:55:15.318Z,5.87
2019-02-11T16:57:43.858Z,3.87
2019-02-11T17:00:17.759Z,5.30
2019-02-11T17:02:46.427Z,3.97
2019-02-11T17:05:15.238Z,5.70
2019-02-11T17:07:43.968Z,4.23
2019-02-11T17:10:14.179Z,4.17
2019-02-11T17:12:42.889Z,5.37
2019-02-11T17:15:13.598Z,2.33
2019-02-11T17:17:42.540Z,8.87
2019-02-11T17:20:13.190Z,5.73
2019-02-11T17:22:41.853Z,5.60
2019-02-11T17:25:11.644Z,5.80
2019-02-11T17:27:40.244Z,4.93
2019-02-11T17:30:12.117Z,6.20
2019-02-11T17:32:40.730Z,9.00
2019-02-11T17:35:10.284Z,6.13
2019-02-11T17:37:40.110Z,7.37
2019-02-11T17:40:14.992Z,4.33
2019-02-11T17:42:43.559Z,7.33
2019-02-11T17:45:21.219Z,4.30
2019-02-11T17:47:49.772Z,3.17
2019-02-11T17:50:18.358Z,6.37
2019-02-11T17:52:46.975Z,4.93
2019-02-11T17:55:15.743Z,6.00
2019-02-11T17:57:44.474Z,5.63
2019-02-11T18:00:26.826Z,6.43
2019-02-11T18:02:55.409Z,3.77
2019-02-11T18:05:23.975Z,5.10
2019-02-11T18:07:52.527Z,3.90
2019-02-11T18:10:21.111Z,5.33
2019-02-11T18:12:49.650Z,6.53
2019-02-11T18:15:18.317Z,5.10
2019-02-11T18:17:46.925Z,7.97
2019-02-11T18:20:15.439Z,3.80
2019-02-11T18:22:44.089Z,5.40
2019-02-11T18:25:13.371Z,3.97
2019-02-11T18:27:42.368Z,4.80
2019-02-11T18:30:14.223Z,7.43
2019-02-11T18:32:43.119Z,7.30
2019-02-11T18:35:13.859Z,3.93
2019-02-11T18:37:42.444Z,4.30
2019-02-11T18:40:13.218Z,7.30
2019-02-11T18:42:41.733Z,2.87
2019-02-11T18:45:13.264Z,5.60
2019-02-11T18:47:41.914Z,4.47
2019-02-11T18:50:13.089Z,5.27
2019-02-11T18:52:41.712Z,4.73
2019-02-11T18:55:12.797Z,3.73
2019-02-11T18:57:41.659Z,6.53
2019-02-11T19:00:13.830Z,6.03
2019-02-11T19:02:42.686Z,6.73
2019-02-11T19:05:11.779Z,4.43
2019-02-11T19:07:40.335Z,2.63
2019-02-11T19:10:11.574Z,5.90
2019-02-11T19:12:40.231Z,5.37
2019-02-11T19:15:11.762Z,5.17
2019-02-11T19:17:40.397Z,4.33
2019-02-11T19:20:32.975Z,10.60
2019-02-11T19:23:01.874Z,3.57
2019-02-11T19:25:30.518Z,4.97
2019-02-11T19:27:59.441Z,7.13
2019-02-11T19:30:28.277Z,3.57
2019-02-11T19:32:56.815Z,5.07
2019-02-11T19:35:25.406Z,4.27
2019-02-11T19:37:53.979Z,5.17
2019-02-11T19:40:22.783Z,4.33
2019-02-11T19:42:52.064Z,5.87
2019-02-11T19:45:24.286Z,4.17
2019-02-11T19:47:52.919Z,7.57
2019-02-11T19:50:21.578Z,6.93
2019-02-11T19:52:50.222Z,6.37
2019-02-11T19:55:18.982Z,6.10
2019-02-11T19:57:47.551Z,3.47
2019-02-11T20:00:21.435Z,5.00
2019-02-11T20:02:50.758Z,9.23
2019-02-11T20:05:19.745Z,2.57
2019-02-11T20:07:48.743Z,7.57
2019-02-11T20:10:22.802Z,10.07
2019-02-11T20:12:51.361Z,3.47
2019-02-11T20:15:23.038Z,3.87
2019-02-11T20:17:51.692Z,5.87
2019-02-11T20:20:21.685Z,3.57
2019-02-11T20:22:50.354Z,2.97
2019-02-11T20:25:18.907Z,5.23
2019-02-11T20:27:47.542Z,4.73
2019-02-11T20:30:18.763Z,3.67
2019-02-11T20:32:47.400Z,5.37
2019-02-11T20:35:15.969Z,4.13
2019-02-11T20:37:44.543Z,10.30
2019-02-11T20:40:15.861Z,9.67
2019-02-11T20:42:44.428Z,5.63
2019-02-11T20:45:15.962Z,3.80
2019-02-11T20:47:44.519Z,7.78
2019-02-11T20:50:13.234Z,4.03
2019-02-11T20:52:41.791Z,11.53
2019-02-11T20:55:12.526Z,7.03
2019-02-11T20:57:41.232Z,6.40
2019-02-11T21:00:18.166Z,6.37
2019-02-11T21:02:46.942Z,8.57
2019-02-11T21:05:15.856Z,6.57
2019-02-11T21:07:44.474Z,4.70
2019-02-11T21:10:17.909Z,9.13
2019-02-11T21:12:46.542Z,5.97
2019-02-11T21:15:16.549Z,7.37
2019-02-11T21:17:45.274Z,7.07
2019-02-11T21:20:19.317Z,9.50
2019-02-11T21:22:48.373Z,4.80
2019-02-11T21:25:16.918Z,5.83
2019-02-11T21:27:45.499Z,7.08
2019-02-11T21:30:15.699Z,13.03
2019-02-11T21:32:44.267Z,10.73
2019-02-11T21:35:13.311Z,6.13
2019-02-11T21:37:41.900Z,9.90
2019-02-11T21:40:10.582Z,8.73
2019-02-11T21:42:39.538Z,6.03
2019-02-11T21:45:11.092Z,5.07
2019-02-11T21:47:39.734Z,7.73
2019-02-11T21:50:11.541Z,8.33
2019-02-11T21:52:40.092Z,7.33
2019-02-11T21:55:14.117Z,7.20
2019-02-11T21:57:42.975Z,7.00
2019-02-11T22:00:19.734Z,6.63
2019-02-11T22:03:07.739Z,4.20
2019-02-11T22:05:36.278Z,4.33
2019-02-11T22:08:04.839Z,10.63
2019-02-11T22:10:33.510Z,11.83
2019-02-11T22:13:02.055Z,4.27
2019-02-11T22:15:30.650Z,10.47
2019-02-11T22:17:59.217Z,4.53
2019-02-11T22:20:34.544Z,9.77
2019-02-11T22:22:58.322Z,8.93
2019-02-11T22:25:27.196Z,7.37
2019-02-11T22:27:55.759Z,8.83
2019-02-11T22:30:24.882Z,11.40
2019-02-11T22:32:53.438Z,7.33
2019-02-11T22:35:22.008Z,8.27
2019-02-11T22:37:51.334Z,13.33
2019-02-11T22:40:20.065Z,6.73
2019-02-11T22:42:48.657Z,7.47
2019-02-11T22:45:25.782Z,8.00
2019-02-11T22:47:54.364Z,11.83
2019-02-11T22:50:22.945Z,11.73
2019-02-11T22:52:51.511Z,8.33
2019-02-11T22:55:20.086Z,13.93
2019-02-11T22:57:48.668Z,7.17
2019-02-11T23:00:49.070Z,15.27
2019-02-11T23:03:17.783Z,8.10
2019-02-11T23:05:46.362Z,9.60
2019-02-11T23:08:15.020Z,10.07
2019-02-11T23:10:43.630Z,7.37
2019-02-11T23:13:12.393Z,9.27
2019-02-11T23:15:41.074Z,9.57
2019-02-11T23:18:09.627Z,13.77
2019-02-11T23:20:38.219Z,5.13
2019-02-11T23:23:06.833Z,7.50
2019-02-11T23:25:35.425Z,12.07
2019-02-11T23:28:04.067Z,8.10
2019-02-11T23:30:32.636Z,7.63
2019-02-11T23:33:01.271Z,9.30
2019-02-11T23:35:29.963Z,8.00
2019-02-11T23:37:58.455Z,8.63
2019-02-11T23:40:27.043Z,7.43
2019-02-11T23:42:55.659Z,7.37
2019-02-11T23:45:24.322Z,5.67
2019-02-11T23:47:52.905Z,8.20
2019-02-11T23:50:21.450Z,9.83
2019-02-11T23:52:50.054Z,7.73
2019-02-11T23:55:18.594Z,10.20
2019-02-11T23:57:47.099Z,9.47
